sensor_id;sensor_type;location;lat;lon;timestamp;pressure;altitude;pressure_sealevel;temperature;humidity
15604;BME280;7902;49.042;9.092;2023-03-26T00:01:31;98618.09;;;13.12;56.62
15604;BME280;7902;49.042;9.092;2023-03-26T00:04:05;98606.72;;;13.11;57.09
15604;BME280;7902;49.042;9.092;2023-03-26T00:06:34;98613.38;;;13.15;56.68
15604;BME280;7902;49.042;9.092;2023-03-26T00:09:03;98600.31;;;13.24;56.97
15604;BME280;7902;49.042;9.092;2023-03-26T00:11:29;98616.56;;;13.19;56.60
15604;BME280;7902;49.042;9.092;2023-03-26T00:13:55;98596.84;;;13.23;56.85
15604;BME280;7902;49.042;9.092;2023-03-26T00:16:24;98597.97;;;13.21;57.00
15604;BME280;7902;49.042;9.092;2023-03-26T00:18:50;98605.59;;;13.24;57.02
15604;BME280;7902;49.042;9.092;2023-03-26T00:21:20;98597.56;;;13.25;56.39
15604;BME280;7902;49.042;9.092;2023-03-26T00:23:47;98593.13;;;13.16;57.04
15604;BME280;7902;49.042;9.092;2023-03-26T00:26:14;98597.56;;;13.15;56.80
15604;BME280;7902;49.042;9.092;2023-03-26T00:28:42;98606.97;;;13.08;57.50
15604;BME280;7902;49.042;9.092;2023-03-26T00:31:10;98596.47;;;13.18;56.99
15604;BME280;7902;49.042;9.092;2023-03-26T00:33:37;98602.97;;;13.14;57.42
15604;BME280;7902;49.042;9.092;2023-03-26T00:36:08;98603.34;;;13.09;57.57
15604;BME280;7902;49.042;9.092;2023-03-26T00:38:35;98602.50;;;13.09;57.34
15604;BME280;7902;49.042;9.092;2023-03-26T00:41:05;98601.84;;;13.07;57.17
15604;BME280;7902;49.042;9.092;2023-03-26T00:43:34;98596.44;;;12.99;57.62
15604;BME280;7902;49.042;9.092;2023-03-26T00:46:00;98592.56;;;13.03;57.31
15604;BME280;7902;49.042;9.092;2023-03-26T00:48:27;98587.13;;;13.04;57.51
15604;BME280;7902;49.042;9.092;2023-03-26T00:50:55;98584.47;;;13.04;57.49
15604;BME280;7902;49.042;9.092;2023-03-26T00:53:21;98574.94;;;12.94;57.88
15604;BME280;7902;49.042;9.092;2023-03-26T00:55:47;98562.31;;;12.97;57.54
15604;BME280;7902;49.042;9.092;2023-03-26T00:58:14;98561.06;;;12.92;57.89
15604;BME280;7902;49.042;9.092;2023-03-26T01:00:53;98560.22;;;13.01;57.56
15604;BME280;7902;49.042;9.092;2023-03-26T01:03:22;98554.81;;;13.02;57.42
15604;BME280;7902;49.042;9.092;2023-03-26T01:05:51;98544.69;;;13.07;57.40
15604;BME280;7902;49.042;9.092;2023-03-26T01:08:29;98541.78;;;13.01;57.71
15604;BME280;7902;49.042;9.092;2023-03-26T01:10:58;98537.75;;;12.97;57.65
15604;BME280;7902;49.042;9.092;2023-03-26T01:13:33;98535.97;;;12.88;57.61
15604;BME280;7902;49.042;9.092;2023-03-26T01:16:00;98540.53;;;12.86;58.13
15604;BME280;7902;49.042;9.092;2023-03-26T01:18:29;98528.88;;;12.79;57.84
15604;BME280;7902;49.042;9.092;2023-03-26T01:21:00;98528.59;;;12.82;58.20
15604;BME280;7902;49.042;9.092;2023-03-26T01:23:42;98523.91;;;12.75;58.11
15604;BME280;7902;49.042;9.092;2023-03-26T01:28:40;98530.69;;;12.68;58.61
15604;BME280;7902;49.042;9.092;2023-03-26T01:31:21;98519.84;;;12.71;58.26
15604;BME280;7902;49.042;9.092;2023-03-26T01:34:03;98499.22;;;12.67;58.09
15604;BME280;7902;49.042;9.092;2023-03-26T01:36:40;98498.25;;;12.68;57.98
15604;BME280;7902;49.042;9.092;2023-03-26T01:39:15;98500.88;;;12.58;58.44
15604;BME280;7902;49.042;9.092;2023-03-26T01:41:50;98494.34;;;12.62;58.02
15604;BME280;7902;49.042;9.092;2023-03-26T01:44:38;98495.59;;;12.58;58.65
15604;BME280;7902;49.042;9.092;2023-03-26T01:47:06;98492.56;;;12.53;58.69
15604;BME280;7902;49.042;9.092;2023-03-26T01:49:34;98484.66;;;12.53;57.93
15604;BME280;7902;49.042;9.092;2023-03-26T01:52:00;98494.78;;;12.48;58.75
15604;BME280;7902;49.042;9.092;2023-03-26T01:54:28;98495.47;;;12.50;58.78
15604;BME280;7902;49.042;9.092;2023-03-26T02:07:40;98460.00;;;12.45;58.64
15604;BME280;7902;49.042;9.092;2023-03-26T02:10:28;98456.94;;;12.49;58.37
15604;BME280;7902;49.042;9.092;2023-03-26T02:12:55;98447.53;;;12.47;58.32
15604;BME280;7902;49.042;9.092;2023-03-26T02:15:22;98439.63;;;12.47;58.07
15604;BME280;7902;49.042;9.092;2023-03-26T02:17:49;98440.31;;;12.49;57.96
15604;BME280;7902;49.042;9.092;2023-03-26T02:20:17;98428.53;;;12.43;58.12
15604;BME280;7902;49.042;9.092;2023-03-26T02:22:45;98425.88;;;12.43;58.23
15604;BME280;7902;49.042;9.092;2023-03-26T02:25:14;98431.03;;;12.35;58.64
15604;BME280;7902;49.042;9.092;2023-03-26T02:27:41;98414.56;;;12.43;58.19
15604;BME280;7902;49.042;9.092;2023-03-26T02:30:09;98406.50;;;12.35;58.23
15604;BME280;7902;49.042;9.092;2023-03-26T02:32:36;98421.19;;;12.37;58.12
15604;BME280;7902;49.042;9.092;2023-03-26T02:35:04;98406.78;;;12.31;58.30
15604;BME280;7902;49.042;9.092;2023-03-26T02:37:31;98414.13;;;12.38;58.57
15604;BME280;7902;49.042;9.092;2023-03-26T02:40:00;98415.66;;;12.40;58.65
15604;BME280;7902;49.042;9.092;2023-03-26T02:42:26;98400.81;;;12.39;58.60
15604;BME280;7902;49.042;9.092;2023-03-26T02:44:52;98403.31;;;12.41;58.41
15604;BME280;7902;49.042;9.092;2023-03-26T02:47:18;98398.47;;;12.36;58.52
15604;BME280;7902;49.042;9.092;2023-03-26T02:49:44;98402.06;;;12.35;58.31
15604;BME280;7902;49.042;9.092;2023-03-26T02:52:10;98396.53;;;12.38;57.96
15604;BME280;7902;49.042;9.092;2023-03-26T02:54:36;98402.06;;;12.35;58.41
15604;BME280;7902;49.042;9.092;2023-03-26T02:57:02;98391.28;;;12.38;57.82
15604;BME280;7902;49.042;9.092;2023-03-26T02:59:28;98393.06;;;12.38;58.22
15604;BME280;7902;49.042;9.092;2023-03-26T03:01:54;98380.75;;;12.38;57.71
15604;BME280;7902;49.042;9.092;2023-03-26T03:04:20;98382.69;;;12.36;58.67
15604;BME280;7902;49.042;9.092;2023-03-26T03:06:46;98373.81;;;12.37;58.11
15604;BME280;7902;49.042;9.092;2023-03-26T03:09:17;98375.06;;;12.43;58.02
15604;BME280;7902;49.042;9.092;2023-03-26T03:11:43;98371.59;;;12.42;57.70
15604;BME280;7902;49.042;9.092;2023-03-26T03:14:09;98362.72;;;12.33;58.79
15604;BME280;7902;49.042;9.092;2023-03-26T03:16:35;98357.44;;;12.43;58.46
15604;BME280;7902;49.042;9.092;2023-03-26T03:19:01;98364.78;;;12.40;58.49
15604;BME280;7902;49.042;9.092;2023-03-26T03:21:28;98360.06;;;12.43;58.19
15604;BME280;7902;49.042;9.092;2023-03-26T03:23:54;98353.84;;;12.44;57.84
15604;BME280;7902;49.042;9.092;2023-03-26T03:26:22;98346.63;;;12.56;58.12
15604;BME280;7902;49.042;9.092;2023-03-26T03:28:53;98351.63;;;12.49;58.24
15604;BME280;7902;49.042;9.092;2023-03-26T03:31:21;98340.53;;;12.55;57.73
15604;BME280;7902;49.042;9.092;2023-03-26T03:33:47;98337.19;;;12.53;58.02
15604;BME280;7902;49.042;9.092;2023-03-26T03:36:15;98338.72;;;12.56;58.12
15604;BME280;7902;49.042;9.092;2023-03-26T03:38:44;98324.19;;;12.52;58.35
15604;BME280;7902;49.042;9.092;2023-03-26T03:41:10;98318.50;;;12.56;58.31
15604;BME280;7902;49.042;9.092;2023-03-26T03:43:35;98323.16;;;12.62;57.81
15604;BME280;7902;49.042;9.092;2023-03-26T03:46:02;98321.53;;;12.61;57.72
15604;BME280;7902;49.042;9.092;2023-03-26T03:48:28;98312.19;;;12.67;58.02
15604;BME280;7902;49.042;9.092;2023-03-26T03:50:55;98308.75;;;12.66;57.85
15604;BME280;7902;49.042;9.092;2023-03-26T03:53:22;98288.50;;;12.67;57.62
15604;BME280;7902;49.042;9.092;2023-03-26T03:55:56;98291.69;;;12.70;57.22
15604;BME280;7902;49.042;9.092;2023-03-26T03:58:24;98290.13;;;12.77;57.32
15604;BME280;7902;49.042;9.092;2023-03-26T04:00:54;98294.75;;;12.66;57.85
15604;BME280;7902;49.042;9.092;2023-03-26T04:03:26;98287.81;;;12.65;57.69
15604;BME280;7902;49.042;9.092;2023-03-26T04:05:55;98282.56;;;12.65;57.57
15604;BME280;7902;49.042;9.092;2023-03-26T04:08:22;98285.63;;;12.60;58.16
15604;BME280;7902;49.042;9.092;2023-03-26T04:10:49;98286.69;;;12.67;57.80
15604;BME280;7902;49.042;9.092;2023-03-26T04:13:15;98283.41;;;12.65;57.74
15604;BME280;7902;49.042;9.092;2023-03-26T04:15:42;98278.97;;;12.66;57.97
15604;BME280;7902;49.042;9.092;2023-03-26T04:18:09;98272.25;;;12.71;57.64
15604;BME280;7902;49.042;9.092;2023-03-26T04:20:36;98268.00;;;12.70;57.90
15604;BME280;7902;49.042;9.092;2023-03-26T04:23:03;98263.00;;;12.67;57.65
15604;BME280;7902;49.042;9.092;2023-03-26T04:25:30;98258.94;;;12.73;57.80
15604;BME280;7902;49.042;9.092;2023-03-26T04:28:01;98253.94;;;12.80;57.33
15604;BME280;7902;49.042;9.092;2023-03-26T04:30:32;98250.63;;;12.77;57.68
15604;BME280;7902;49.042;9.092;2023-03-26T04:33:00;98242.47;;;12.71;57.53
15604;BME280;7902;49.042;9.092;2023-03-26T04:35:31;98241.78;;;12.69;58.04
15604;BME280;7902;49.042;9.092;2023-03-26T04:38:02;98243.41;;;12.80;57.59
15604;BME280;7902;49.042;9.092;2023-03-26T04:40:32;98236.47;;;12.79;57.73
15604;BME280;7902;49.042;9.092;2023-03-26T04:43:00;98228.03;;;12.75;57.57
15604;BME280;7902;49.042;9.092;2023-03-26T04:45:28;98216.38;;;12.77;57.52
15604;BME280;7902;49.042;9.092;2023-03-26T04:47:56;98210.66;;;12.82;57.42
15604;BME280;7902;49.042;9.092;2023-03-26T04:50:23;98199.59;;;12.79;57.58
15604;BME280;7902;49.042;9.092;2023-03-26T04:52:49;98190.56;;;12.81;57.56
15604;BME280;7902;49.042;9.092;2023-03-26T04:55:33;98183.59;;;12.90;57.55
15604;BME280;7902;49.042;9.092;2023-03-26T04:58:01;98182.91;;;12.88;57.10
15604;BME280;7902;49.042;9.092;2023-03-26T05:00:30;98170.63;;;12.79;57.55
15604;BME280;7902;49.042;9.092;2023-03-26T05:02:57;98176.84;;;12.77;57.65
15604;BME280;7902;49.042;9.092;2023-03-26T05:05:28;98179.09;;;12.72;57.91
15604;BME280;7902;49.042;9.092;2023-03-26T05:07:54;98181.94;;;12.61;58.51
15604;BME280;7902;49.042;9.092;2023-03-26T05:10:20;98191.47;;;12.62;58.30
15604;BME280;7902;49.042;9.092;2023-03-26T05:12:47;98186.13;;;12.54;58.33
15604;BME280;7902;49.042;9.092;2023-03-26T05:15:13;98195.38;;;12.58;58.04
15604;BME280;7902;49.042;9.092;2023-03-26T05:17:40;98181.78;;;12.63;58.27
15604;BME280;7902;49.042;9.092;2023-03-26T05:20:15;98176.69;;;12.61;58.42
15604;BME280;7902;49.042;9.092;2023-03-26T05:22:43;98171.50;;;12.69;58.16
15604;BME280;7902;49.042;9.092;2023-03-26T05:25:09;98165.91;;;12.55;58.35
15604;BME280;7902;49.042;9.092;2023-03-26T05:27:35;98159.41;;;12.49;59.03
15604;BME280;7902;49.042;9.092;2023-03-26T05:30:03;98149.34;;;12.62;58.22
15604;BME280;7902;49.042;9.092;2023-03-26T05:32:30;98143.81;;;12.65;58.27
15604;BME280;7902;49.042;9.092;2023-03-26T05:34:56;98145.66;;;12.55;58.89
15604;BME280;7902;49.042;9.092;2023-03-26T05:37:22;98146.25;;;12.49;59.00
15604;BME280;7902;49.042;9.092;2023-03-26T05:39:52;98133.53;;;12.62;58.58
15604;BME280;7902;49.042;9.092;2023-03-26T05:42:19;98134.81;;;12.58;58.92
15604;BME280;7902;49.042;9.092;2023-03-26T05:44:45;98131.78;;;12.53;58.78
15604;BME280;7902;49.042;9.092;2023-03-26T05:47:11;98114.84;;;12.65;58.75
15604;BME280;7902;49.042;9.092;2023-03-26T05:49:37;98127.75;;;12.59;59.17
15604;BME280;7902;49.042;9.092;2023-03-26T05:52:03;98118.75;;;12.61;58.43
15604;BME280;7902;49.042;9.092;2023-03-26T05:54:29;98109.84;;;12.62;58.10
15604;BME280;7902;49.042;9.092;2023-03-26T05:56:55;98094.81;;;12.72;58.07
15604;BME280;7902;49.042;9.092;2023-03-26T05:59:22;98100.78;;;12.74;58.58
15604;BME280;7902;49.042;9.092;2023-03-26T06:01:49;98096.47;;;12.73;58.66
15604;BME280;7902;49.042;9.092;2023-03-26T06:04:18;98095.72;;;12.63;58.95
15604;BME280;7902;49.042;9.092;2023-03-26T06:06:44;98090.91;;;12.76;57.95
15604;BME280;7902;49.042;9.092;2023-03-26T06:09:10;98079.72;;;12.92;58.44
15604;BME280;7902;49.042;9.092;2023-03-26T06:11:38;98073.75;;;13.08;57.31
15604;BME280;7902;49.042;9.092;2023-03-26T06:14:05;98076.31;;;13.00;57.47
15604;BME280;7902;49.042;9.092;2023-03-26T06:16:31;98068.84;;;12.95;57.69
15604;BME280;7902;49.042;9.092;2023-03-26T06:18:57;98072.50;;;12.94;57.78
15604;BME280;7902;49.042;9.092;2023-03-26T06:21:24;98062.63;;;13.14;56.93
15604;BME280;7902;49.042;9.092;2023-03-26T06:23:50;98058.69;;;13.00;57.62
15604;BME280;7902;49.042;9.092;2023-03-26T06:26:16;98050.78;;;13.00;57.70
15604;BME280;7902;49.042;9.092;2023-03-26T06:28:42;98037.94;;;13.15;57.53
15604;BME280;7902;49.042;9.092;2023-03-26T06:31:08;98035.16;;;13.16;57.01
15604;BME280;7902;49.042;9.092;2023-03-26T06:33:34;98029.88;;;13.16;57.67
15604;BME280;7902;49.042;9.092;2023-03-26T06:36:00;98033.84;;;13.21;57.31
15604;BME280;7902;49.042;9.092;2023-03-26T06:38:26;98031.22;;;13.21;57.70
15604;BME280;7902;49.042;9.092;2023-03-26T06:40:52;98022.44;;;13.12;57.65
15604;BME280;7902;49.042;9.092;2023-03-26T06:43:18;98022.44;;;13.12;57.68
15604;BME280;7902;49.042;9.092;2023-03-26T06:45:48;98020.16;;;13.17;57.27
15604;BME280;7902;49.042;9.092;2023-03-26T06:48:14;98011.88;;;13.12;57.83
15604;BME280;7902;49.042;9.092;2023-03-26T06:50:40;98016.84;;;13.15;58.27
15604;BME280;7902;49.042;9.092;2023-03-26T06:53:07;98011.16;;;13.10;57.94
15604;BME280;7902;49.042;9.092;2023-03-26T06:55:33;98007.19;;;13.06;58.53
15604;BME280;7902;49.042;9.092;2023-03-26T06:57:58;98001.59;;;13.09;58.14
15604;BME280;7902;49.042;9.092;2023-03-26T07:00:24;98001.09;;;13.05;58.29
15604;BME280;7902;49.042;9.092;2023-03-26T07:02:51;98001.09;;;13.05;58.31
15604;BME280;7902;49.042;9.092;2023-03-26T07:05:16;97999.44;;;13.04;58.04
15604;BME280;7902;49.042;9.092;2023-03-26T07:07:42;97996.66;;;13.06;58.10
15604;BME280;7902;49.042;9.092;2023-03-26T07:10:08;98001.88;;;13.15;57.88
15604;BME280;7902;49.042;9.092;2023-03-26T07:12:34;98004.63;;;13.14;57.63
15604;BME280;7902;49.042;9.092;2023-03-26T07:15:02;98003.25;;;13.10;58.11
15604;BME280;7902;49.042;9.092;2023-03-26T07:17:28;97996.44;;;13.17;57.58
15604;BME280;7902;49.042;9.092;2023-03-26T07:19:54;97992.84;;;13.18;57.15
15604;BME280;7902;49.042;9.092;2023-03-26T07:22:22;98000.38;;;13.13;57.45
15604;BME280;7902;49.042;9.092;2023-03-26T07:24:49;97990.38;;;13.25;57.47
15604;BME280;7902;49.042;9.092;2023-03-26T07:30:08;97987.03;;;13.14;58.19
15604;BME280;7902;49.042;9.092;2023-03-26T07:32:46;97973.69;;;13.16;57.99
15604;BME280;7902;49.042;9.092;2023-03-26T07:35:29;97987.59;;;13.26;58.41
15604;BME280;7902;49.042;9.092;2023-03-26T07:46:31;97963.88;;;13.26;58.73
15604;BME280;7902;49.042;9.092;2023-03-26T07:49:02;97966.31;;;13.19;58.68
15604;BME280;7902;49.042;9.092;2023-03-26T07:51:30;97954.78;;;13.21;58.45
15604;BME280;7902;49.042;9.092;2023-03-26T07:53:56;97950.72;;;13.08;59.21
15604;BME280;7902;49.042;9.092;2023-03-26T07:56:33;97955.56;;;13.13;59.32
15604;BME280;7902;49.042;9.092;2023-03-26T07:59:28;97952.81;;;13.05;59.36
15604;BME280;7902;49.042;9.092;2023-03-26T08:13:27;97940.66;;;13.30;58.74
15604;BME280;7902;49.042;9.092;2023-03-26T08:16:16;97934.78;;;13.36;58.39
15604;BME280;7902;49.042;9.092;2023-03-26T08:19:06;97918.97;;;13.36;58.50
15604;BME280;7902;49.042;9.092;2023-03-26T08:21:53;97910.75;;;13.47;57.91
15604;BME280;7902;49.042;9.092;2023-03-26T08:24:39;97893.31;;;13.46;58.53
15604;BME280;7902;49.042;9.092;2023-03-26T08:27:34;97895.13;;;13.45;57.82
15604;BME280;7902;49.042;9.092;2023-03-26T08:30:24;97894.28;;;13.45;57.59
15604;BME280;7902;49.042;9.092;2023-03-26T08:32:57;97908.34;;;13.61;57.76
15604;BME280;7902;49.042;9.092;2023-03-26T08:35:24;97890.00;;;13.52;57.72
15604;BME280;7902;49.042;9.092;2023-03-26T08:37:50;97880.00;;;13.63;57.16
15604;BME280;7902;49.042;9.092;2023-03-26T08:40:36;97886.59;;;13.59;57.43
15604;BME280;7902;49.042;9.092;2023-03-26T08:54:51;97889.16;;;13.43;59.08
15604;BME280;7902;49.042;9.092;2023-03-26T09:02:56;97895.00;;;13.21;59.59
15604;BME280;7902;49.042;9.092;2023-03-26T09:05:54;97875.59;;;13.30;58.96
15604;BME280;7902;49.042;9.092;2023-03-26T09:08:52;97869.09;;;13.50;58.66
15604;BME280;7902;49.042;9.092;2023-03-26T09:12:10;97866.41;;;13.42;58.32
15604;BME280;7902;49.042;9.092;2023-03-26T09:15:00;97880.59;;;13.41;58.89
15604;BME280;7902;49.042;9.092;2023-03-26T09:20:53;97879.94;;;13.47;59.57
15604;BME280;7902;49.042;9.092;2023-03-26T09:29:12;97857.34;;;13.37;61.67
15604;BME280;7902;49.042;9.092;2023-03-26T09:34:17;97849.31;;;13.46;62.87
15604;BME280;7902;49.042;9.092;2023-03-26T09:37:16;97843.91;;;13.56;61.62
15604;BME280;7902;49.042;9.092;2023-03-26T09:42:40;97839.97;;;13.68;62.54
15604;BME280;7902;49.042;9.092;2023-03-26T09:45:20;97849.06;;;13.82;62.16
15604;BME280;7902;49.042;9.092;2023-03-26T09:50:52;97859.59;;;13.74;61.35
15604;BME280;7902;49.042;9.092;2023-03-26T09:53:37;97864.22;;;13.80;61.51
15604;BME280;7902;49.042;9.092;2023-03-26T10:10:03;97846.75;;;13.79;61.11
15604;BME280;7902;49.042;9.092;2023-03-26T10:12:38;97858.00;;;13.89;61.23
15604;BME280;7902;49.042;9.092;2023-03-26T10:20:51;97837.88;;;13.96;62.45
15604;BME280;7902;49.042;9.092;2023-03-26T10:34:51;97856.03;;;14.23;61.33
15604;BME280;7902;49.042;9.092;2023-03-26T10:37:46;97835.56;;;14.09;60.61
15604;BME280;7902;49.042;9.092;2023-03-26T10:40:20;97835.59;;;14.25;61.05
15604;BME280;7902;49.042;9.092;2023-03-26T10:43:12;97833.25;;;14.22;61.00
15604;BME280;7902;49.042;9.092;2023-03-26T10:51:34;97826.00;;;14.32;61.69
15604;BME280;7902;49.042;9.092;2023-03-26T10:54:34;97822.25;;;14.43;61.03
15604;BME280;7902;49.042;9.092;2023-03-26T10:57:33;97820.41;;;14.52;60.04
15604;BME280;7902;49.042;9.092;2023-03-26T10:59:56;97837.91;;;14.53;59.60
15604;BME280;7902;49.042;9.092;2023-03-26T11:02:38;97829.66;;;14.64;59.17
15604;BME280;7902;49.042;9.092;2023-03-26T11:05:25;97820.56;;;14.66;59.93
15604;BME280;7902;49.042;9.092;2023-03-26T11:08:09;97813.13;;;14.62;59.20
15604;BME280;7902;49.042;9.092;2023-03-26T11:10:54;97825.03;;;14.58;59.67
15604;BME280;7902;49.042;9.092;2023-03-26T11:13:39;97809.22;;;14.49;59.23
15604;BME280;7902;49.042;9.092;2023-03-26T11:19:16;97791.97;;;14.70;56.76
15604;BME280;7902;49.042;9.092;2023-03-26T11:26:58;97796.19;;;15.03;55.99
15604;BME280;7902;49.042;9.092;2023-03-26T11:32:13;97794.69;;;15.09;55.48
15604;BME280;7902;49.042;9.092;2023-03-26T11:34:59;97780.94;;;15.13;55.25
15604;BME280;7902;49.042;9.092;2023-03-26T11:37:32;97784.88;;;15.17;55.18
15604;BME280;7902;49.042;9.092;2023-03-26T11:40:02;97786.53;;;15.18;54.62
15604;BME280;7902;49.042;9.092;2023-03-26T11:42:31;97786.50;;;15.26;53.37
15604;BME280;7902;49.042;9.092;2023-03-26T11:44:59;97770.56;;;15.43;53.88
15604;BME280;7902;49.042;9.092;2023-03-26T11:47:34;97797.44;;;15.23;51.73
15604;BME280;7902;49.042;9.092;2023-03-26T11:50:04;97792.75;;;15.33;48.83
15604;BME280;7902;49.042;9.092;2023-03-26T11:52:31;97786.50;;;15.26;48.82
15604;BME280;7902;49.042;9.092;2023-03-26T11:54:57;97789.91;;;15.35;48.50
15604;BME280;7902;49.042;9.092;2023-03-26T11:57:31;97785.25;;;15.45;51.04
15604;BME280;7902;49.042;9.092;2023-03-26T12:00:25;97776.78;;;15.50;49.87
15604;BME280;7902;49.042;9.092;2023-03-26T12:02:57;97774.25;;;15.64;49.48
15604;BME280;7902;49.042;9.092;2023-03-26T12:05:25;97772.22;;;15.74;49.14
15604;BME280;7902;49.042;9.092;2023-03-26T12:08:01;97778.63;;;15.80;48.50
15604;BME280;7902;49.042;9.092;2023-03-26T12:10:31;97783.38;;;15.85;49.71
15604;BME280;7902;49.042;9.092;2023-03-26T12:13:34;97773.41;;;15.95;50.12
15604;BME280;7902;49.042;9.092;2023-03-26T12:16:17;97792.06;;;16.16;49.13
15604;BME280;7902;49.042;9.092;2023-03-26T12:18:45;97768.56;;;16.36;48.07
15604;BME280;7902;49.042;9.092;2023-03-26T12:21:17;97782.19;;;16.33;48.83
15604;BME280;7902;49.042;9.092;2023-03-26T12:23:54;97776.44;;;16.44;47.52
15604;BME280;7902;49.042;9.092;2023-03-26T12:26:35;97776.88;;;16.33;48.48
15604;BME280;7902;49.042;9.092;2023-03-26T12:29:12;97773.94;;;16.28;48.64
15604;BME280;7902;49.042;9.092;2023-03-26T12:31:50;97777.22;;;16.30;48.12
15604;BME280;7902;49.042;9.092;2023-03-26T12:34:21;97777.50;;;16.35;48.33
15604;BME280;7902;49.042;9.092;2023-03-26T12:36:53;97764.47;;;16.10;48.19
15604;BME280;7902;49.042;9.092;2023-03-26T12:39:34;97762.25;;;16.22;46.31
15604;BME280;7902;49.042;9.092;2023-03-26T12:42:04;97762.59;;;16.19;48.29
15604;BME280;7902;49.042;9.092;2023-03-26T12:44:35;97766.34;;;16.24;46.99
15604;BME280;7902;49.042;9.092;2023-03-26T12:47:21;97759.13;;;16.18;46.50
15604;BME280;7902;49.042;9.092;2023-03-26T12:49:48;97768.84;;;16.41;46.36
15604;BME280;7902;49.042;9.092;2023-03-26T12:52:29;97752.47;;;16.60;44.75
15604;BME280;7902;49.042;9.092;2023-03-26T13:01:09;97735.66;;;16.82;45.94
15604;BME280;7902;49.042;9.092;2023-03-26T13:17:12;97707.81;;;17.22;43.43
15604;BME280;7902;49.042;9.092;2023-03-26T13:20:06;97715.59;;;17.45;42.96
15604;BME280;7902;49.042;9.092;2023-03-26T13:23:01;97698.16;;;17.36;44.22
15604;BME280;7902;49.042;9.092;2023-03-26T13:25:37;97702.81;;;17.13;47.07
15604;BME280;7902;49.042;9.092;2023-03-26T13:28:35;97701.34;;;17.46;45.85
15604;BME280;7902;49.042;9.092;2023-03-26T13:31:31;97707.94;;;17.71;43.95
15604;BME280;7902;49.042;9.092;2023-03-26T13:34:13;97714.66;;;18.16;43.60
15604;BME280;7902;49.042;9.092;2023-03-26T13:39:41;97718.41;;;18.22;44.15
15604;BME280;7902;49.042;9.092;2023-03-26T13:47:48;97715.84;;;18.14;44.06
15604;BME280;7902;49.042;9.092;2023-03-26T13:50:29;97711.72;;;18.32;43.21
15604;BME280;7902;49.042;9.092;2023-03-26T13:53:13;97710.59;;;18.48;41.93
15604;BME280;7902;49.042;9.092;2023-03-26T13:55:46;97714.03;;;18.42;41.89
15604;BME280;7902;49.042;9.092;2023-03-26T13:58:20;97711.69;;;18.26;41.99
15604;BME280;7902;49.042;9.092;2023-03-26T14:00:59;97710.53;;;18.41;41.36
15604;BME280;7902;49.042;9.092;2023-03-26T14:06:05;97697.66;;;18.11;43.24
15604;BME280;7902;49.042;9.092;2023-03-26T14:08:40;97699.84;;;17.79;43.96
15604;BME280;7902;49.042;9.092;2023-03-26T14:11:12;97700.53;;;17.67;44.05
15604;BME280;7902;49.042;9.092;2023-03-26T14:16:22;97694.56;;;17.43;42.98
15604;BME280;7902;49.042;9.092;2023-03-26T14:18:55;97698.47;;;17.26;43.20
15604;BME280;7902;49.042;9.092;2023-03-26T14:21:54;97693.19;;;17.11;43.11
15604;BME280;7902;49.042;9.092;2023-03-26T14:24:42;97694.22;;;16.96;44.13
15604;BME280;7902;49.042;9.092;2023-03-26T14:27:39;97700.69;;;17.08;44.60
15604;BME280;7902;49.042;9.092;2023-03-26T14:35:52;97689.41;;;16.70;45.04
15604;BME280;7902;49.042;9.092;2023-03-26T14:41:52;97704.28;;;16.42;44.21
15604;BME280;7902;49.042;9.092;2023-03-26T14:44:39;97716.72;;;16.56;44.43
15604;BME280;7902;49.042;9.092;2023-03-26T14:47:20;97727.84;;;16.37;43.53
15604;BME280;7902;49.042;9.092;2023-03-26T14:55:12;97746.31;;;16.07;45.29
15604;BME280;7902;49.042;9.092;2023-03-26T15:00:33;97778.16;;;15.76;46.80
15604;BME280;7902;49.042;9.092;2023-03-26T15:14:23;97799.81;;;15.02;52.99
15604;BME280;7902;49.042;9.092;2023-03-26T15:28:31;97790.66;;;14.74;52.80
15604;BME280;7902;49.042;9.092;2023-03-26T15:31:18;97791.84;;;14.63;53.64
15604;BME280;7902;49.042;9.092;2023-03-26T15:45:33;97782.78;;;14.25;54.52
15604;BME280;7902;49.042;9.092;2023-03-26T15:50:55;97773.03;;;14.18;53.91
15604;BME280;7902;49.042;9.092;2023-03-26T15:56:09;97776.34;;;14.20;54.58
15604;BME280;7902;49.042;9.092;2023-03-26T15:59:02;97762.00;;;14.06;54.32
15604;BME280;7902;49.042;9.092;2023-03-26T16:07:45;97772.41;;;13.91;54.40
15604;BME280;7902;49.042;9.092;2023-03-26T16:12:52;97781.94;;;13.68;54.28
15604;BME280;7902;49.042;9.092;2023-03-26T16:15:30;97780.81;;;13.87;54.59
15604;BME280;7902;49.042;9.092;2023-03-26T16:18:15;97780.63;;;13.80;54.11
15604;BME280;7902;49.042;9.092;2023-03-26T16:23:24;97780.31;;;13.91;54.70
15604;BME280;7902;49.042;9.092;2023-03-26T16:25:55;97786.38;;;13.76;54.65
15604;BME280;7902;49.042;9.092;2023-03-26T16:28:26;97786.19;;;13.61;54.67
15604;BME280;7902;49.042;9.092;2023-03-26T16:33:47;97798.25;;;13.80;55.06
15604;BME280;7902;49.042;9.092;2023-03-26T16:36:23;97800.25;;;13.78;54.94
15604;BME280;7902;49.042;9.092;2023-03-26T16:46:42;97820.31;;;13.46;54.75
15604;BME280;7902;49.042;9.092;2023-03-26T16:52:21;97831.34;;;13.58;54.85
15604;BME280;7902;49.042;9.092;2023-03-26T16:55:18;97828.84;;;13.40;54.73
15604;BME280;7902;49.042;9.092;2023-03-26T16:58:27;97830.84;;;13.46;55.38
15604;BME280;7902;49.042;9.092;2023-03-26T17:03:40;97842.19;;;13.47;55.06
15604;BME280;7902;49.042;9.092;2023-03-26T17:09:12;97850.44;;;13.44;55.13
15604;BME280;7902;49.042;9.092;2023-03-26T17:12:28;97835.94;;;13.40;55.56
15604;BME280;7902;49.042;9.092;2023-03-26T17:14:58;97845.13;;;13.36;55.60
15604;BME280;7902;49.042;9.092;2023-03-26T17:17:50;97855.97;;;13.33;55.76
15604;BME280;7902;49.042;9.092;2023-03-26T17:20:28;97849.59;;;13.43;55.34
15604;BME280;7902;49.042;9.092;2023-03-26T17:26:22;97862.88;;;13.00;56.43
15604;BME280;7902;49.042;9.092;2023-03-26T17:28:59;97858.09;;;13.21;56.21
15604;BME280;7902;49.042;9.092;2023-03-26T17:42:27;97838.03;;;13.02;56.67
15604;BME280;7902;49.042;9.092;2023-03-26T17:45:02;97838.38;;;12.99;56.91
15604;BME280;7902;49.042;9.092;2023-03-26T17:47:47;97831.31;;;13.08;56.74
15604;BME280;7902;49.042;9.092;2023-03-26T17:50:54;97832.25;;;12.99;56.43
15604;BME280;7902;49.042;9.092;2023-03-26T17:53:29;97832.09;;;13.00;56.79
15604;BME280;7902;49.042;9.092;2023-03-26T17:55:59;97826.34;;;13.05;56.68